createdAt,value
2023-01-25T00:00:13.456Z,50.834793
2023-01-25T00:01:13.457Z,50.834785
2023-01-25T00:02:13.506Z,50.834785
2023-01-25T00:03:13.505Z,50.834797
2023-01-25T00:04:13.426Z,50.834785
2023-01-25T00:05:13.405Z,50.834763
2023-01-25T00:06:13.409Z,50.834763
2023-01-25T00:07:13.408Z,50.834770
2023-01-25T00:08:14.276Z,50.834808
2023-01-25T00:09:13.383Z,50.834820
2023-01-25T00:10:13.352Z,50.834824
2023-01-25T00:11:13.357Z,50.834805
2023-01-25T00:12:13.377Z,50.834839
2023-01-25T00:13:13.336Z,50.834816
2023-01-25T00:14:13.329Z,50.834805
2023-01-25T00:15:13.375Z,50.834827
2023-01-25T00:16:13.343Z,50.834801
2023-01-25T00:17:13.331Z,50.834820
2023-01-25T00:18:13.303Z,50.834808
2023-01-25T00:19:13.320Z,50.834805
2023-01-25T00:20:13.316Z,50.834812
2023-01-25T00:21:14.270Z,50.834816
2023-01-25T00:22:13.272Z,50.834820
2023-01-25T00:23:13.270Z,50.834816
2023-01-25T00:24:13.356Z,50.834827
2023-01-25T00:25:13.259Z,50.834816
2023-01-25T00:26:14.256Z,50.834805
2023-01-25T00:27:13.302Z,50.834801
2023-01-25T00:28:13.211Z,50.834785
2023-01-25T00:29:13.225Z,50.834793
2023-01-25T00:30:13.233Z,50.834805
2023-01-25T00:31:13.290Z,50.834785
2023-01-25T00:32:13.330Z,50.834770
2023-01-25T00:33:13.193Z,50.834797
2023-01-25T00:34:13.188Z,50.834797
2023-01-25T00:35:13.219Z,50.834801
2023-01-25T00:36:13.195Z,50.834793
2023-01-25T00:37:13.227Z,50.834797
2023-01-25T00:38:13.144Z,50.834793
2023-01-25T00:39:13.143Z,50.834789
2023-01-25T00:40:13.131Z,50.834778
2023-01-25T00:41:13.114Z,50.834785
2023-01-25T00:42:13.148Z,50.834793
2023-01-25T00:43:13.154Z,50.834782
2023-01-25T00:44:13.108Z,50.834812
2023-01-25T00:45:13.094Z,50.834812
2023-01-25T00:46:13.149Z,50.834797
2023-01-25T00:47:13.068Z,50.834789
2023-01-25T00:48:13.098Z,50.834805
2023-01-25T00:49:13.062Z,50.834816
2023-01-25T00:50:13.055Z,50.834801
2023-01-25T00:51:13.049Z,50.834797
2023-01-25T00:52:13.039Z,50.834789
2023-01-25T00:53:13.045Z,50.834805
2023-01-25T00:54:13.189Z,50.834770
2023-01-25T00:55:12.995Z,50.834785
2023-01-25T00:56:13.021Z,50.834755
2023-01-25T00:57:13.035Z,50.834782
2023-01-25T00:58:13.851Z,50.834759
2023-01-25T00:59:12.988Z,50.834785
2023-01-25T01:00:12.975Z,50.834797
2023-01-25T01:01:13.074Z,50.834774
2023-01-25T01:02:13.015Z,50.834785
2023-01-25T01:03:12.995Z,50.834805
2023-01-25T01:04:13.012Z,50.834805
2023-01-25T01:05:13.218Z,50.834820
2023-01-25T01:06:12.927Z,50.834774
2023-01-25T01:07:13.046Z,50.834778
2023-01-25T01:08:12.944Z,50.834785
2023-01-25T01:09:12.924Z,50.834740
2023-01-25T01:10:13.930Z,50.834812
2023-01-25T01:11:12.945Z,50.834805
2023-01-25T01:12:12.959Z,50.834793
2023-01-25T01:13:12.940Z,50.834805
2023-01-25T01:14:12.914Z,50.834793
2023-01-25T01:15:12.869Z,50.834827
2023-01-25T01:16:13.087Z,50.834785
2023-01-25T01:17:12.923Z,50.834805
2023-01-25T01:18:13.401Z,50.834824
2023-01-25T01:19:12.985Z,50.834816
2023-01-25T01:20:12.929Z,50.834801
2023-01-25T01:21:12.823Z,50.834808
2023-01-25T01:22:12.801Z,50.834820
2023-01-25T01:23:13.157Z,50.834808
2023-01-25T01:24:12.854Z,50.834816
2023-01-25T01:25:12.811Z,50.834827
2023-01-25T01:26:12.801Z,50.834778
2023-01-25T01:27:12.792Z,50.834782
2023-01-25T01:28:12.844Z,50.834778
2023-01-25T01:29:12.740Z,50.834782
2023-01-25T01:30:12.788Z,50.834766
2023-01-25T01:31:12.849Z,50.834743
2023-01-25T01:32:13.551Z,50.834724
2023-01-25T01:33:12.709Z,50.834770
2023-01-25T01:34:12.712Z,50.834770
2023-01-25T01:35:12.721Z,50.834747
2023-01-25T01:36:12.720Z,50.834747
2023-01-25T01:37:12.680Z,50.834778
2023-01-25T01:38:12.969Z,50.834766
2023-01-25T01:39:12.693Z,50.834801
2023-01-25T01:40:12.661Z,50.834801
2023-01-25T01:41:12.659Z,50.834793
2023-01-25T01:42:12.671Z,50.834782
2023-01-25T01:43:12.664Z,50.834793
2023-01-25T01:44:12.632Z,50.834785
2023-01-25T01:45:12.621Z,50.834766
2023-01-25T01:46:12.682Z,50.834785
2023-01-25T01:47:12.640Z,50.834770
2023-01-25T01:48:12.862Z,50.834785
2023-01-25T01:49:12.596Z,50.834793
2023-01-25T01:50:12.584Z,50.834789
2023-01-25T01:51:12.601Z,50.834785
2023-01-25T01:52:12.588Z,50.834789
2023-01-25T01:53:12.627Z,50.834785
2023-01-25T01:54:12.540Z,50.834797
2023-01-25T01:55:12.572Z,50.834785
2023-01-25T01:56:12.582Z,50.834785
2023-01-25T01:57:12.554Z,50.834778
2023-01-25T01:58:12.969Z,50.834797
2023-01-25T01:59:12.530Z,50.834766
2023-01-25T02:00:12.530Z,50.834789
2023-01-25T02:01:12.591Z,50.834785
2023-01-25T02:02:12.557Z,50.834797
2023-01-25T02:03:12.527Z,50.834808
2023-01-25T02:04:12.475Z,50.834801
2023-01-25T02:05:12.477Z,50.834812
2023-01-25T02:06:12.495Z,50.834801
2023-01-25T02:07:12.498Z,50.834789
2023-01-25T02:08:13.393Z,50.834789
2023-01-25T02:09:12.477Z,50.834797
2023-01-25T02:10:12.496Z,50.834797
2023-01-25T02:11:12.442Z,50.834785
2023-01-25T02:12:12.438Z,50.834782
2023-01-25T02:13:12.408Z,50.834789
2023-01-25T02:14:12.403Z,50.834782
2023-01-25T02:15:12.429Z,50.834801
2023-01-25T02:16:12.415Z,50.834785
2023-01-25T02:17:12.377Z,50.834782
2023-01-25T02:18:12.380Z,50.834797
2023-01-25T02:19:12.354Z,50.834808
2023-01-25T02:20:12.432Z,50.834805
2023-01-25T02:21:12.359Z,50.834805
2023-01-25T02:22:12.333Z,50.834801
2023-01-25T02:23:12.345Z,50.834797
2023-01-25T02:24:12.411Z,50.834789
2023-01-25T02:25:12.357Z,50.834805
2023-01-25T02:26:12.334Z,50.834816
2023-01-25T02:27:12.287Z,50.834820
2023-01-25T02:28:12.282Z,50.834801
2023-01-25T02:29:12.289Z,50.834774
2023-01-25T02:30:12.296Z,50.834782
2023-01-25T02:31:12.946Z,50.834785
2023-01-25T02:32:12.288Z,50.834812
2023-01-25T02:33:12.245Z,50.834797
2023-01-25T02:34:12.250Z,50.834782
2023-01-25T02:35:12.271Z,50.834789
2023-01-25T02:36:12.244Z,50.834778
2023-01-25T02:37:12.242Z,50.834770
2023-01-25T02:38:12.882Z,50.834793
2023-01-25T02:39:12.247Z,50.834801
2023-01-25T02:40:12.226Z,50.834805
2023-01-25T02:41:44.113Z,50.834808
2023-01-25T02:42:12.237Z,50.834789
2023-01-25T02:43:12.169Z,50.834785
2023-01-25T02:44:12.196Z,50.834797
2023-01-25T02:45:12.172Z,50.834785
2023-01-25T02:46:12.217Z,50.834812
2023-01-25T02:47:12.151Z,50.834816
2023-01-25T02:48:12.148Z,50.834808
2023-01-25T02:49:12.160Z,50.834816
2023-01-25T02:50:14.320Z,50.834816
2023-01-25T02:51:12.147Z,50.834789
2023-01-25T02:52:12.166Z,50.834789
2023-01-25T02:53:12.110Z,50.834808
2023-01-25T02:54:12.130Z,50.834808
2023-01-25T02:55:12.079Z,50.834801
2023-01-25T02:56:12.070Z,50.834805
2023-01-25T02:57:12.091Z,50.834816
2023-01-25T02:58:12.130Z,50.834805
2023-01-25T02:59:12.090Z,50.834820
2023-01-25T03:00:12.086Z,50.834812
2023-01-25T03:01:12.077Z,50.834793
2023-01-25T03:02:12.069Z,50.834820
2023-01-25T03:03:12.035Z,50.834846
2023-01-25T03:04:12.037Z,50.834835
2023-01-25T03:05:12.055Z,50.834862
2023-01-25T03:06:12.063Z,50.834820
2023-01-25T03:07:11.996Z,50.834805
2023-01-25T03:08:11.985Z,50.834824
2023-01-25T03:09:12.023Z,50.834816
2023-01-25T03:10:12.088Z,50.834816
2023-01-25T03:11:11.965Z,50.834782
2023-01-25T03:12:11.960Z,50.834797
2023-01-25T03:13:11.981Z,50.834824
2023-01-25T03:14:11.963Z,50.834812
2023-01-25T03:15:11.984Z,50.834820
2023-01-25T03:16:12.036Z,50.834827
2023-01-25T03:17:11.922Z,50.834805
2023-01-25T03:18:11.917Z,50.834805
2023-01-25T03:19:11.940Z,50.834820
2023-01-25T03:20:11.990Z,50.834824
2023-01-25T03:21:11.959Z,50.834808
2023-01-25T03:22:11.897Z,50.834827
2023-01-25T03:23:11.871Z,50.834827
2023-01-25T03:24:11.957Z,50.834820
2023-01-25T03:25:12.022Z,50.834812
2023-01-25T03:26:11.896Z,50.834839
2023-01-25T03:27:11.844Z,50.834850
2023-01-25T03:28:11.845Z,50.834839
2023-01-25T03:29:11.977Z,50.834812
2023-01-25T03:30:11.834Z,50.834820
2023-01-25T03:31:11.894Z,50.834835
2023-01-25T03:32:11.807Z,50.834812
2023-01-25T03:33:11.827Z,50.834839
2023-01-25T03:34:11.794Z,50.834827
2023-01-25T03:35:11.840Z,50.834862
2023-01-25T03:36:11.906Z,50.834831
2023-01-25T03:37:11.794Z,50.834831
2023-01-25T03:38:11.759Z,50.834858
2023-01-25T03:39:11.748Z,50.834858
2023-01-25T03:40:11.762Z,50.834873
2023-01-25T03:41:11.772Z,50.834896
2023-01-25T03:42:11.738Z,50.834854
2023-01-25T03:43:11.719Z,50.834846
2023-01-25T03:44:11.739Z,50.834873
2023-01-25T03:45:12.115Z,50.834869
2023-01-25T03:46:11.699Z,50.834850
2023-01-25T03:47:11.839Z,50.834858
2023-01-25T04:08:06.719Z,50.834824
2023-01-25T04:09:06.671Z,50.834805
2023-01-25T04:10:06.702Z,50.834778
2023-01-25T04:11:06.671Z,50.834774
2023-01-25T04:12:06.652Z,50.834801
2023-01-25T04:13:06.661Z,50.834789
2023-01-25T04:14:06.681Z,50.834789
2023-01-25T04:15:07.057Z,50.834801
2023-01-25T04:16:06.667Z,50.834797
2023-01-25T04:17:06.722Z,50.834805
2023-01-25T04:18:06.606Z,50.834801
2023-01-25T04:19:06.604Z,50.834801
2023-01-25T04:20:06.601Z,50.834816
2023-01-25T04:21:06.589Z,50.834805
2023-01-25T04:22:06.609Z,50.834824
2023-01-25T04:23:06.599Z,50.834812
2023-01-25T04:24:06.622Z,50.834789
2023-01-25T04:25:06.965Z,50.834816
2023-01-25T04:26:06.563Z,50.834793
2023-01-25T04:27:06.555Z,50.834820
2023-01-25T04:28:06.588Z,50.834846
2023-01-25T04:29:06.551Z,50.834816
2023-01-25T04:30:06.523Z,50.834824
2023-01-25T04:31:06.520Z,50.834820
2023-01-25T04:32:06.637Z,50.834808
2023-01-25T04:33:06.506Z,50.834831
2023-01-25T04:34:06.498Z,50.834827
2023-01-25T04:35:06.772Z,50.834812
2023-01-25T04:36:06.513Z,50.834808
2023-01-25T04:37:06.502Z,50.834824
2023-01-25T04:38:06.443Z,50.834789
2023-01-25T04:39:06.479Z,50.834808
2023-01-25T04:40:06.431Z,50.834797
2023-01-25T04:41:06.573Z,50.834824
2023-01-25T04:42:06.455Z,50.834820
2023-01-25T04:43:06.420Z,50.834824
2023-01-25T04:44:06.413Z,50.834827
2023-01-25T04:45:06.427Z,50.834843
2023-01-25T04:46:07.277Z,50.834846
2023-01-25T04:47:06.425Z,50.834805
2023-01-25T04:48:06.388Z,50.834805
2023-01-25T04:49:06.430Z,50.834782
2023-01-25T04:50:07.311Z,50.834808
2023-01-25T04:51:07.357Z,50.834782
2023-01-25T04:52:06.402Z,50.834816
2023-01-25T04:53:06.358Z,50.834824
2023-01-25T04:54:06.334Z,50.834789
2023-01-25T04:55:07.755Z,50.834812
2023-01-25T04:56:06.310Z,50.834816
2023-01-25T04:57:06.311Z,50.834782
2023-01-25T04:58:06.457Z,50.834793
2023-01-25T04:59:06.283Z,50.834816
2023-01-25T05:00:06.296Z,50.834805
2023-01-25T05:01:06.374Z,50.834782
2023-01-25T05:02:06.279Z,50.834797
2023-01-25T05:03:06.283Z,50.834782
2023-01-25T05:04:06.258Z,50.834808
2023-01-25T05:05:06.262Z,50.834793
2023-01-25T05:06:06.222Z,50.834774
2023-01-25T05:07:06.233Z,50.834785
2023-01-25T05:08:06.360Z,50.834789
2023-01-25T05:09:06.216Z,50.834820
2023-01-25T05:10:06.189Z,50.834797
2023-01-25T05:11:06.213Z,50.834789
2023-01-25T05:12:06.190Z,50.834782
2023-01-25T05:13:06.252Z,50.834770
2023-01-25T05:14:06.197Z,50.834759
2023-01-25T05:15:06.168Z,50.834774
2023-01-25T05:16:07.715Z,50.834785
2023-01-25T05:17:06.153Z,50.834774
2023-01-25T05:18:06.156Z,50.834770
2023-01-25T05:19:06.136Z,50.834766
2023-01-25T05:20:06.808Z,50.834778
2023-01-25T05:21:06.160Z,50.834785
2023-01-25T05:22:06.131Z,50.834763
2023-01-25T05:23:06.104Z,50.834774
2023-01-25T05:24:06.155Z,50.834793
2023-01-25T05:25:06.178Z,50.834816
2023-01-25T05:26:06.124Z,50.834801
2023-01-25T05:27:06.154Z,50.834778
2023-01-25T05:28:06.073Z,50.834778
2023-01-25T05:29:06.066Z,50.834789
2023-01-25T05:30:06.096Z,50.834801
2023-01-25T05:31:06.104Z,50.834801
2023-01-25T05:32:06.129Z,50.834808
2023-01-25T05:33:06.048Z,50.834808
2023-01-25T05:34:06.023Z,50.834805
2023-01-25T05:35:06.111Z,50.834808
2023-01-25T05:36:06.017Z,50.834789
2023-01-25T05:37:06.031Z,50.834801
2023-01-25T05:38:06.000Z,50.834820
2023-01-25T05:39:06.012Z,50.834820
2023-01-25T05:40:06.042Z,50.834782
2023-01-25T05:41:06.044Z,50.834778
2023-01-25T05:42:05.981Z,50.834785
2023-01-25T05:43:05.941Z,50.834793
2023-01-25T05:44:05.960Z,50.834797
2023-01-25T05:45:06.042Z,50.834782
2023-01-25T05:46:05.982Z,50.834797
2023-01-25T05:47:05.938Z,50.834774
2023-01-25T05:48:05.933Z,50.834774
2023-01-25T05:49:05.941Z,50.834801
2023-01-25T05:50:08.597Z,50.834820
2023-01-25T05:51:05.890Z,50.834839
2023-01-25T05:52:05.885Z,50.834827
2023-01-25T05:53:05.905Z,50.834805
2023-01-25T05:54:05.894Z,50.834816
2023-01-25T05:55:05.854Z,50.834808
2023-01-25T05:56:05.971Z,50.834812
2023-01-25T05:57:05.860Z,50.834805
2023-01-25T05:58:06.043Z,50.834797
2023-01-25T05:59:05.872Z,50.834793
2023-01-25T06:00:05.852Z,50.834816
2023-01-25T06:01:05.935Z,50.834824
2023-01-25T06:02:05.813Z,50.834805
2023-01-25T06:03:05.854Z,50.834805
2023-01-25T06:04:06.798Z,50.834801
2023-01-25T06:05:05.854Z,50.834827
2023-01-25T06:06:05.806Z,50.834805
2023-01-25T06:07:05.765Z,50.834778
2023-01-25T06:08:05.781Z,50.834774
2023-01-25T06:09:05.754Z,50.834782
2023-01-25T06:10:05.774Z,50.834782
2023-01-25T06:11:05.748Z,50.834805
2023-01-25T06:12:05.735Z,50.834839
2023-01-25T06:13:05.794Z,50.834824
2023-01-25T06:14:05.737Z,50.834820
2023-01-25T06:15:05.717Z,50.834782
2023-01-25T06:16:05.766Z,50.834793
2023-01-25T06:17:05.704Z,50.834805
2023-01-25T06:18:05.676Z,50.834808
2023-01-25T06:19:05.670Z,50.834805
2023-01-25T06:20:05.663Z,50.834820
2023-01-25T06:21:06.663Z,50.834812
2023-01-25T06:22:05.730Z,50.834801
2023-01-25T06:23:05.630Z,50.834797
2023-01-25T06:24:05.729Z,50.834797
2023-01-25T06:25:05.651Z,50.834827
2023-01-25T06:26:05.615Z,50.834808
2023-01-25T06:27:05.639Z,50.834801
2023-01-25T06:28:05.614Z,50.834827
2023-01-25T06:29:05.607Z,50.834816
2023-01-25T06:30:05.578Z,50.834793
2023-01-25T06:31:05.628Z,50.834820
2023-01-25T06:32:05.598Z,50.834785
2023-01-25T06:33:05.607Z,50.834774
2023-01-25T06:34:05.568Z,50.834808
2023-01-25T06:35:05.552Z,50.834816
2023-01-25T06:36:05.532Z,50.834820
2023-01-25T06:37:05.554Z,50.834808
2023-01-25T06:38:05.544Z,50.834808
2023-01-25T06:39:05.521Z,50.834812
2023-01-25T06:40:05.551Z,50.834797
2023-01-25T06:41:05.526Z,50.834808
2023-01-25T06:42:05.495Z,50.834812
2023-01-25T06:43:05.501Z,50.834801
2023-01-25T06:44:05.501Z,50.834797
2023-01-25T06:45:05.512Z,50.834805
2023-01-25T06:46:06.980Z,50.834805
2023-01-25T06:47:05.488Z,50.834778
2023-01-25T06:48:05.450Z,50.834759
2023-01-25T06:49:05.525Z,50.834831
2023-01-25T06:50:05.428Z,50.834820
2023-01-25T06:51:05.424Z,50.834789
2023-01-25T06:52:05.430Z,50.834812
2023-01-25T06:53:05.427Z,50.834808
2023-01-25T06:54:05.434Z,50.834793
2023-01-25T06:55:05.414Z,50.834797
2023-01-25T06:56:05.406Z,50.834812
2023-01-25T06:57:05.385Z,50.834770
2023-01-25T06:58:05.422Z,50.834774
2023-01-25T06:59:05.404Z,50.834774
2023-01-25T07:00:05.364Z,50.834793
2023-01-25T07:01:05.376Z,50.834797
2023-01-25T07:02:05.406Z,50.834778
2023-01-25T07:03:05.410Z,50.834793
2023-01-25T07:04:06.366Z,50.834797
2023-01-25T07:05:05.356Z,50.834805
2023-01-25T07:06:05.392Z,50.834785
2023-01-25T07:07:05.315Z,50.834789
2023-01-25T07:08:05.327Z,50.834812
2023-01-25T07:09:05.308Z,50.834801
2023-01-25T07:10:05.321Z,50.834789
2023-01-25T07:11:05.308Z,50.834766
2023-01-25T07:12:05.266Z,50.834789
2023-01-25T07:13:05.286Z,50.834805
2023-01-25T07:14:05.263Z,50.834789
2023-01-25T07:15:05.266Z,50.834774
2023-01-25T07:16:05.278Z,50.834789
2023-01-25T07:17:05.234Z,50.834785
2023-01-25T07:18:15.678Z,50.834785
2023-01-25T07:19:07.241Z,50.834812
2023-01-25T07:20:05.237Z,50.834793
2023-01-25T07:21:05.207Z,50.834797
2023-01-25T07:22:05.187Z,50.834793
2023-01-25T07:23:05.183Z,50.834797
2023-01-25T07:24:05.252Z,50.834808
2023-01-25T07:25:05.170Z,50.834805
2023-01-25T07:26:05.231Z,50.834808
2023-01-25T07:27:05.220Z,50.834778
2023-01-25T07:28:05.144Z,50.834785
2023-01-25T07:29:05.149Z,50.834812
2023-01-25T07:30:05.213Z,50.834827
2023-01-25T07:31:05.299Z,50.834824
2023-01-25T07:32:05.129Z,50.834816
2023-01-25T07:33:05.124Z,50.834812
2023-01-25T07:34:05.130Z,50.834816
2023-01-25T07:35:05.133Z,50.834805
2023-01-25T07:36:05.147Z,50.834785
2023-01-25T07:37:05.089Z,50.834812
2023-01-25T07:38:05.085Z,50.834816
2023-01-25T07:39:05.073Z,50.834820
2023-01-25T07:40:05.085Z,50.834766
2023-01-25T07:41:05.078Z,50.834801
2023-01-25T07:42:05.088Z,50.834774
2023-01-25T07:43:05.053Z,50.834801
2023-01-25T07:44:05.059Z,50.834801
2023-01-25T07:45:05.010Z,50.834805
2023-01-25T07:46:05.056Z,50.834831
2023-01-25T07:47:05.793Z,50.834820
2023-01-25T07:48:05.019Z,50.834850
2023-01-25T07:49:04.994Z,50.834824
2023-01-25T07:50:05.047Z,50.834812
2023-01-25T07:51:04.966Z,50.834808
2023-01-25T07:52:05.708Z,50.834827
2023-01-25T07:53:04.985Z,50.834846
2023-01-25T07:54:04.970Z,50.834824
2023-01-25T07:55:04.953Z,50.834824
2023-01-25T07:56:04.961Z,50.834839
2023-01-25T07:57:04.956Z,50.834866
2023-01-25T07:58:04.925Z,50.834858
2023-01-25T07:59:05.040Z,50.834816
2023-01-25T08:00:04.919Z,50.834839
2023-01-25T08:01:04.898Z,50.834827
2023-01-25T08:02:04.930Z,50.834827
2023-01-25T08:03:04.922Z,50.834824
2023-01-25T08:04:04.901Z,50.834824
2023-01-25T08:05:04.891Z,50.834843
2023-01-25T08:06:04.859Z,50.834831
2023-01-25T08:07:04.903Z,50.834839
2023-01-25T08:08:04.871Z,50.834824
2023-01-25T08:09:04.848Z,50.834850
2023-01-25T08:10:04.942Z,50.834835
2023-01-25T08:11:04.825Z,50.834808
2023-01-25T08:12:06.791Z,50.834824
2023-01-25T08:13:04.838Z,50.834843
2023-01-25T08:14:04.848Z,50.834805
2023-01-25T08:15:04.827Z,50.834846
2023-01-25T08:16:04.890Z,50.834846
2023-01-25T08:17:04.779Z,50.834824
2023-01-25T08:18:04.781Z,50.834831
2023-01-25T08:19:04.811Z,50.834831
2023-01-25T08:20:04.799Z,50.834835
2023-01-25T08:21:04.748Z,50.834824
2023-01-25T08:22:04.769Z,50.834839
2023-01-25T08:23:04.747Z,50.834858
2023-01-25T08:24:04.820Z,50.834866
2023-01-25T08:25:04.748Z,50.834885
2023-01-25T08:26:04.777Z,50.834854
2023-01-25T08:27:04.741Z,50.834835
2023-01-25T08:28:04.709Z,50.834854
2023-01-25T08:29:04.691Z,50.834835
2023-01-25T08:30:04.741Z,50.834808
2023-01-25T08:31:36.713Z,50.834843
2023-01-25T08:32:04.776Z,50.834827
2023-01-25T08:33:04.657Z,50.834843
2023-01-25T08:34:05.684Z,50.834843
2023-01-25T08:35:04.712Z,50.834839
2023-01-25T08:36:04.655Z,50.834850
2023-01-25T08:37:04.659Z,50.834824
2023-01-25T08:38:04.651Z,50.834862
2023-01-25T08:39:05.181Z,50.834846
2023-01-25T08:40:04.628Z,50.834854
2023-01-25T08:41:36.596Z,50.834827
2023-01-25T08:42:04.617Z,50.834824
2023-01-25T08:43:05.616Z,50.834866
2023-01-25T08:44:04.572Z,50.834877
2023-01-25T08:45:04.609Z,50.834854
2023-01-25T08:46:04.618Z,50.834854
2023-01-25T08:47:04.586Z,50.834846
2023-01-25T08:48:04.584Z,50.834843
2023-01-25T08:49:04.789Z,50.834885
2023-01-25T08:50:37.505Z,50.834850
2023-01-25T08:51:04.540Z,50.834858
2023-01-25T08:52:04.579Z,50.834850
2023-01-25T08:53:04.552Z,50.834862
2023-01-25T08:54:36.413Z,50.834877
2023-01-25T08:55:04.513Z,50.834850
2023-01-25T08:56:04.591Z,50.834835
2023-01-25T08:57:04.520Z,50.834854
2023-01-25T08:58:04.493Z,50.834839
2023-01-25T08:59:04.521Z,50.834858
2023-01-25T09:00:04.520Z,50.834850
2023-01-25T09:01:04.533Z,50.834854
2023-01-25T09:02:04.454Z,50.834869
2023-01-25T09:03:04.464Z,50.834824
2023-01-25T09:04:04.526Z,50.834866
2023-01-25T09:05:04.439Z,50.834843
2023-01-25T09:06:04.495Z,50.834869
2023-01-25T09:07:04.467Z,50.834881
2023-01-25T09:08:06.366Z,50.834839
2023-01-25T09:09:04.409Z,50.834866
2023-01-25T09:10:04.393Z,50.834850
2023-01-25T09:11:04.364Z,50.834862
2023-01-25T09:12:04.436Z,50.834839
2023-01-25T09:13:06.341Z,50.834888
2023-01-25T09:14:04.439Z,50.834873
2023-01-25T09:15:04.369Z,50.834873
2023-01-25T09:16:04.364Z,50.834854
2023-01-25T09:17:04.442Z,50.834850
2023-01-25T09:18:04.371Z,50.834862
2023-01-25T09:19:04.374Z,50.834854
2023-01-25T09:20:04.338Z,50.834904
2023-01-25T09:21:04.400Z,50.834892
2023-01-25T09:22:04.326Z,50.834904
2023-01-25T09:23:04.287Z,50.834923
2023-01-25T09:24:06.916Z,50.834919
2023-01-25T09:25:05.479Z,50.834911
2023-01-25T09:26:04.307Z,50.834915
2023-01-25T09:27:04.273Z,50.834942
2023-01-25T09:28:04.270Z,50.834942
2023-01-25T09:29:04.346Z,50.834919
2023-01-25T09:30:04.462Z,50.834911
2023-01-25T09:31:20.559Z,50.834908
2023-01-25T09:32:06.341Z,50.834885
2023-01-25T09:33:04.238Z,50.834892
2023-01-25T09:34:04.219Z,50.834904
2023-01-25T09:35:04.195Z,50.834911
2023-01-25T09:36:04.210Z,50.834915
2023-01-25T09:37:36.139Z,50.834900
2023-01-25T09:38:04.181Z,50.834900
2023-01-25T09:39:36.126Z,50.834896
2023-01-25T09:40:04.173Z,50.834900
2023-01-25T09:41:36.569Z,50.834862
2023-01-25T09:42:14.058Z,50.834900
2023-01-25T09:43:05.124Z,50.834881
2023-01-25T09:44:14.181Z,50.834888
2023-01-25T09:45:06.185Z,50.834923
2023-01-25T09:46:04.160Z,50.834892
2023-01-25T09:47:04.084Z,50.834881
2023-01-25T09:48:04.108Z,50.834915
2023-01-25T09:49:07.714Z,50.834900
2023-01-25T09:50:05.099Z,50.834850
2023-01-25T09:51:05.046Z,50.834888
2023-01-25T09:52:04.182Z,50.834900
2023-01-25T09:53:04.067Z,50.834885
2023-01-25T09:54:04.078Z,50.834885
2023-01-25T09:55:04.104Z,50.834892
2023-01-25T09:56:04.053Z,50.834885
2023-01-25T09:57:04.040Z,50.834885
2023-01-25T09:58:04.166Z,50.834869
2023-01-25T09:59:04.013Z,50.834843
2023-01-25T10:00:04.258Z,50.834843
2023-01-25T10:01:12.073Z,50.834858
2023-01-25T10:02:05.020Z,50.834877
2023-01-25T10:03:04.031Z,50.834850
2023-01-25T10:04:03.965Z,50.834854
2023-01-25T10:05:03.992Z,50.834854
2023-01-25T10:06:03.958Z,50.834854
2023-01-25T10:07:04.038Z,50.834866
2023-01-25T10:08:03.974Z,50.834869
2023-01-25T10:09:04.134Z,50.834873
2023-01-25T10:10:03.950Z,50.834862
2023-01-25T10:11:03.934Z,50.834858
2023-01-25T10:12:03.974Z,50.834862
2023-01-25T10:13:03.965Z,50.834858
2023-01-25T10:14:03.901Z,50.834866
2023-01-25T10:15:03.913Z,50.834858
2023-01-25T10:16:05.219Z,50.834846
2023-01-25T10:17:03.898Z,50.834858
2023-01-25T10:18:03.879Z,50.834850
2023-01-25T10:19:03.851Z,50.834831
2023-01-25T10:20:03.862Z,50.834824
2023-01-25T10:21:03.846Z,50.834831
2023-01-25T10:22:03.857Z,50.834843
2023-01-25T10:23:03.912Z,50.834839
2023-01-25T10:24:03.866Z,50.834854
2023-01-25T10:25:04.605Z,50.834850
2023-01-25T10:26:03.801Z,50.834873
2023-01-25T10:27:04.603Z,50.834862
2023-01-25T10:28:03.864Z,50.834843
2023-01-25T10:29:03.976Z,50.834835
2023-01-25T10:30:03.779Z,50.834858
2023-01-25T10:31:03.954Z,50.834869
2023-01-25T10:32:03.752Z,50.834854
2023-01-25T10:33:03.805Z,50.834839
2023-01-25T10:34:03.791Z,50.834881
2023-01-25T10:35:03.778Z,50.834866
2023-01-25T10:36:03.739Z,50.834850
2023-01-25T10:37:03.764Z,50.834858
2023-01-25T10:38:03.714Z,50.834843
2023-01-25T10:39:03.737Z,50.834827
2023-01-25T10:40:03.696Z,50.834854
2023-01-25T10:41:03.878Z,50.834827
2023-01-25T10:42:03.718Z,50.834843
2023-01-25T10:43:03.672Z,50.834831
2023-01-25T10:44:03.727Z,50.834820
2023-01-25T10:45:03.702Z,50.834824
2023-01-25T10:46:03.648Z,50.834843
2023-01-25T10:47:03.627Z,50.834827
2023-01-25T10:48:03.633Z,50.834812
2023-01-25T10:49:03.650Z,50.834831
2023-01-25T10:50:03.696Z,50.834835
2023-01-25T10:51:03.616Z,50.834824
2023-01-25T10:52:03.604Z,50.834824
2023-01-25T10:53:03.625Z,50.834843
2023-01-25T10:54:04.587Z,50.834839
2023-01-25T10:55:03.701Z,50.834846
2023-01-25T10:56:03.606Z,50.834846
2023-01-25T10:57:03.546Z,50.834839
2023-01-25T10:58:03.546Z,50.834827
2023-01-25T10:59:03.544Z,50.834827
2023-01-25T11:00:03.552Z,50.834820
2023-01-25T11:01:03.601Z,50.834820
2023-01-25T11:02:03.578Z,50.834824
2023-01-25T11:03:03.557Z,50.834816
2023-01-25T11:04:03.501Z,50.834831
2023-01-25T11:05:03.499Z,50.834816
2023-01-25T11:06:03.496Z,50.834824
2023-01-25T11:07:03.578Z,50.834808
2023-01-25T11:08:03.468Z,50.834816
2023-01-25T11:09:03.519Z,50.834831
2023-01-25T11:10:03.496Z,50.834835
2023-01-25T11:11:03.464Z,50.834843
2023-01-25T11:12:03.520Z,50.834827
2023-01-25T11:13:04.390Z,50.834831
2023-01-25T11:14:03.432Z,50.834820
2023-01-25T11:15:03.431Z,50.834827
2023-01-25T11:16:03.474Z,50.834820
2023-01-25T11:17:03.421Z,50.834805
2023-01-25T11:18:03.423Z,50.834824
2023-01-25T11:19:03.395Z,50.834801
2023-01-25T11:20:03.389Z,50.834824
2023-01-25T11:21:03.436Z,50.834820
2023-01-25T11:22:03.409Z,50.834820
2023-01-25T11:23:03.399Z,50.834812
2023-01-25T11:24:04.720Z,50.834805
2023-01-25T11:25:03.348Z,50.834805
2023-01-25T11:26:03.341Z,50.834808
2023-01-25T11:27:04.309Z,50.834816
2023-01-25T11:28:03.362Z,50.834805
2023-01-25T11:29:03.334Z,50.834805
2023-01-25T11:30:03.321Z,50.834808
2023-01-25T11:31:03.423Z,50.834793
2023-01-25T11:32:03.312Z,50.834808
2023-01-25T11:33:03.311Z,50.834801
2023-01-25T11:34:03.306Z,50.834801
2023-01-25T11:35:03.266Z,50.834816
2023-01-25T11:36:04.267Z,50.834827
2023-01-25T11:37:03.355Z,50.834808
2023-01-25T11:38:03.279Z,50.834797
2023-01-25T11:39:03.257Z,50.834808
2023-01-25T11:40:03.233Z,50.834797
2023-01-25T11:41:03.265Z,50.834805
2023-01-25T11:42:03.280Z,50.834797
2023-01-25T11:43:03.233Z,50.834808
2023-01-25T11:44:03.224Z,50.834812